Time;durP1;ratioP1;P1;durP2;ratioP2;P2;SDS_P1;SDS_P2;PMS_P1;PMS_P2;Temp;Humidity;BMP_temperature;BMP_pressure;BME280_temperature;BME280_humidity;BME280_pressure;Samples;Min_cycle;Max_cycle;Signal;HPM_P1;HPM_P2
2023/07/18 00:01:42;;;;;;;1.80;0.50;;;23.30;51.30;;;;;;4974983;28;20554;-51
2023/07/18 00:04:07;;;;;;;0.80;0.50;;;23.30;51.30;;;;;;4978832;28;20023;-51
2023/07/18 00:06:33;;;;;;;1.77;0.50;;;23.30;51.30;;;;;;4980953;28;20518;-52
2023/07/18 00:08:59;;;;;;;1.25;0.35;;;23.30;51.40;;;;;;4977397;28;20060;-49
2023/07/18 00:11:24;;;;;;;1.13;0.40;;;23.30;51.30;;;;;;4983821;28;20141;-54
2023/07/18 00:13:50;;;;;;;2.92;0.75;;;23.30;51.30;;;;;;4977567;28;20130;-53
2023/07/18 00:16:16;;;;;;;1.35;0.60;;;23.20;51.20;;;;;;4976603;28;20610;-51
2023/07/18 00:18:41;;;;;;;1.85;0.55;;;23.20;51.20;;;;;;4960715;28;20034;-51
2023/07/18 00:21:07;;;;;;;1.10;0.63;;;23.20;51.10;;;;;;4976583;28;20031;-49
2023/07/18 00:23:33;;;;;;;0.80;0.40;;;23.30;51.20;;;;;;4975978;28;20235;-50
2023/07/18 00:25:59;;;;;;;0.88;0.40;;;23.30;51.30;;;;;;4978181;28;20066;-51
2023/07/18 00:28:25;;;;;;;2.28;0.77;;;23.20;51.30;;;;;;4982992;28;20684;-51
2023/07/18 00:30:51;;;;;;;0.75;0.40;;;23.20;51.30;;;;;;4976674;28;20033;-53
2023/07/18 00:33:16;;;;;;;0.90;0.70;;;23.20;51.30;;;;;;4976767;28;20034;-53
2023/07/18 00:35:43;;;;;;;1.00;0.50;;;23.20;51.40;;;;;;4974632;28;20203;-51
2023/07/18 00:38:09;;;;;;;2.72;0.90;;;23.20;51.40;;;;;;4978457;28;20530;-49
2023/07/18 00:40:34;;;;;;;1.67;0.50;;;23.10;51.30;;;;;;4977112;28;20038;-53
2023/07/18 00:43:00;;;;;;;1.92;0.40;;;23.20;51.50;;;;;;4982401;28;20026;-51
2023/07/18 00:45:26;;;;;;;1.25;0.68;;;23.10;51.40;;;;;;4979636;28;20443;-53
2023/07/18 00:47:52;;;;;;;5.25;1.08;;;23.10;51.40;;;;;;4982020;28;20047;-51
2023/07/18 00:50:18;;;;;;;3.65;0.50;;;23.10;51.40;;;;;;4980310;28;20041;-51
2023/07/18 00:52:52;;;;;;;1.15;0.40;;;23.10;51.40;;;;;;4974435;28;20512;-52
2023/07/18 00:55:19;;;;;;;0.68;0.50;;;23.10;51.40;;;;;;4980137;28;20030;-50
2023/07/18 00:57:46;;;;;;;1.02;0.80;;;23.10;51.40;;;;;;4974651;28;20054;-52
2023/07/18 01:00:13;;;;;;;2.25;0.50;;;23.10;51.40;;;;;;4981573;28;20034;-53
2023/07/18 01:02:44;;;;;;;1.30;0.40;;;23.10;51.40;;;;;;4978389;28;20484;-52
2023/07/18 01:05:10;;;;;;;0.85;0.55;;;23.10;51.40;;;;;;4978451;28;20034;-50
2023/07/18 01:07:40;;;;;;;1.30;0.40;;;23.10;51.30;;;;;;4981427;28;20493;-52
2023/07/18 01:10:23;;;;;;;1.15;0.50;;;23.10;51.50;;;;;;4982915;28;20053;-52
2023/07/18 01:12:49;;;;;;;0.82;0.60;;;23.00;51.50;;;;;;4971827;28;20046;-51
2023/07/18 01:15:15;;;;;;;0.90;0.65;;;23.00;51.60;;;;;;4977876;28;20535;-52
2023/07/18 01:17:44;;;;;;;0.55;0.52;;;23.00;51.50;;;;;;4976275;28;20023;-50
2023/07/18 01:20:21;;;;;;;0.95;0.50;;;23.00;51.50;;;;;;4966551;28;20031;-49
2023/07/18 01:22:49;;;;;;;1.63;0.63;;;23.00;51.60;;;;;;4973347;28;20061;-54
2023/07/18 01:25:16;;;;;;;1.38;0.50;;;23.00;51.60;;;;;;4978552;28;20023;-52
2023/07/18 01:27:43;;;;;;;1.40;0.43;;;23.00;51.60;;;;;;4980012;28;20456;-51
2023/07/18 01:30:09;;;;;;;1.73;0.60;;;23.00;51.70;;;;;;4979393;28;20112;-50
2023/07/18 01:32:35;;;;;;;0.93;0.68;;;23.00;51.70;;;;;;4979737;28;20129;-51
2023/07/18 01:35:02;;;;;;;6.00;0.95;;;23.00;51.60;;;;;;4981935;28;20088;-53
2023/07/18 01:37:28;;;;;;;1.52;0.50;;;23.00;51.60;;;;;;4987441;28;20030;-51
2023/07/18 01:39:53;;;;;;;1.65;0.70;;;23.00;51.60;;;;;;4982254;28;20463;-52
2023/07/18 01:42:19;;;;;;;1.70;0.60;;;22.90;51.50;;;;;;4973604;28;20805;-50
2023/07/18 01:44:44;;;;;;;1.40;0.50;;;23.00;51.60;;;;;;4974195;28;20114;-50
2023/07/18 01:47:10;;;;;;;1.10;0.70;;;23.00;51.60;;;;;;4975421;28;20039;-51
2023/07/18 01:49:36;;;;;;;1.67;0.65;;;23.00;51.60;;;;;;4976803;28;20027;-52
2023/07/18 01:52:03;;;;;;;3.53;0.60;;;23.00;51.60;;;;;;4965391;28;20122;-52
2023/07/18 01:54:29;;;;;;;1.63;0.70;;;22.90;52.20;;;;;;4982078;28;20439;-52
2023/07/18 01:56:54;;;;;;;0.70;0.55;;;22.90;51.70;;;;;;4985005;28;20117;-51
2023/07/18 01:59:21;;;;;;;1.60;0.70;;;22.90;51.70;;;;;;4985781;28;20034;-50
2023/07/18 02:01:47;;;;;;;3.28;0.70;;;22.90;51.80;;;;;;4985977;28;20074;-50
2023/07/18 02:04:13;;;;;;;1.20;0.65;;;22.90;51.80;;;;;;4983222;28;20437;-53
2023/07/18 02:06:40;;;;;;;0.70;0.57;;;22.90;51.80;;;;;;4973211;28;20038;-49
2023/07/18 02:09:06;;;;;;;1.60;0.70;;;22.80;51.70;;;;;;4983558;28;20082;-50
2023/07/18 02:11:32;;;;;;;1.30;0.63;;;22.80;51.80;;;;;;4985006;28;20034;-49
2023/07/18 02:13:58;;;;;;;0.82;0.65;;;22.80;51.80;;;;;;4984218;28;20030;-49
2023/07/18 02:16:23;;;;;;;4.68;0.80;;;22.80;51.90;;;;;;4984737;28;20125;-53
2023/07/18 02:18:49;;;;;;;3.05;0.55;;;22.80;51.80;;;;;;4979596;28;20027;-50
2023/07/18 02:21:14;;;;;;;1.40;0.73;;;22.80;51.70;;;;;;4981296;28;20141;-50
2023/07/18 02:23:40;;;;;;;1.13;1.00;;;22.80;51.80;;;;;;4975940;28;20031;-53
2023/07/18 02:26:05;;;;;;;0.80;0.70;;;22.80;51.80;;;;;;4981058;28;20644;-49
2023/07/18 02:28:31;;;;;;;1.52;0.80;;;22.80;51.80;;;;;;4977905;28;20034;-50
2023/07/18 02:30:57;;;;;;;1.00;0.50;;;22.80;51.80;;;;;;4976204;28;20318;-50
2023/07/18 02:33:23;;;;;;;2.25;0.70;;;22.80;51.80;;;;;;4981339;28;20053;-50
2023/07/18 02:35:49;;;;;;;2.08;0.90;;;22.80;51.80;;;;;;4983345;28;20031;-58
2023/07/18 02:38:15;;;;;;;2.92;0.70;;;22.70;51.80;;;;;;4981706;28;20113;-50
2023/07/18 02:40:44;;;;;;;2.90;0.70;;;22.70;51.90;;;;;;4978808;28;20109;-52
2023/07/18 02:43:09;;;;;;;1.58;0.75;;;22.70;52.60;;;;;;4973062;28;20045;-50
2023/07/18 02:45:35;;;;;;;1.15;0.68;;;22.70;52.00;;;;;;4982442;28;20038;-49
2023/07/18 02:48:01;;;;;;;1.70;0.50;;;22.70;52.00;;;;;;4982447;28;20042;-51
2023/07/18 02:50:26;;;;;;;0.73;0.45;;;22.70;52.00;;;;;;4982499;28;20088;-50
2023/07/18 02:52:52;;;;;;;1.33;0.60;;;22.70;52.10;;;;;;4983972;28;20038;-49
2023/07/18 02:55:17;;;;;;;1.98;0.57;;;22.60;52.00;;;;;;4979369;28;20073;-50
2023/07/18 02:57:43;;;;;;;1.50;0.73;;;22.70;52.10;;;;;;4978434;28;20035;-50
2023/07/18 03:00:25;;;;;;;1.20;0.70;;;22.60;52.10;;;;;;4983860;28;20042;-50
2023/07/18 03:02:52;;;;;;;1.50;0.70;;;22.60;52.10;;;;;;4971018;28;20053;-50
2023/07/18 03:05:18;;;;;;;3.65;0.70;;;22.70;52.10;;;;;;4984297;28;20050;-52
2023/07/18 03:07:46;;;;;;;1.40;0.70;;;22.70;52.00;;;;;;4980348;28;20035;-50
2023/07/18 03:10:12;;;;;;;3.20;0.73;;;22.60;52.00;;;;;;4984897;28;20030;-50
2023/07/18 03:12:40;;;;;;;1.42;1.00;;;22.60;52.10;;;;;;4984648;28;20030;-50
2023/07/18 03:15:07;;;;;;;2.83;0.70;;;22.60;52.10;;;;;;4984617;28;20048;-49
2023/07/18 03:17:33;;;;;;;1.75;0.70;;;22.60;52.10;;;;;;4983791;28;20515;-50
2023/07/18 03:19:59;;;;;;;1.10;0.65;;;22.60;52.10;;;;;;4984003;28;20082;-53
2023/07/18 03:22:24;;;;;;;1.42;0.70;;;22.60;52.10;;;;;;4984245;28;20027;-50
2023/07/18 03:24:51;;;;;;;2.08;0.73;;;22.50;52.20;;;;;;4981411;28;20030;-51
2023/07/18 03:27:18;;;;;;;0.93;0.50;;;22.60;52.90;;;;;;4982674;28;20034;-53
2023/07/18 03:29:43;;;;;;;1.58;0.60;;;22.50;52.30;;;;;;4981922;28;20030;-50
2023/07/18 03:32:09;;;;;;;1.98;1.00;;;22.50;52.30;;;;;;4981562;28;20962;-50
2023/07/18 03:34:34;;;;;;;1.15;0.70;;;22.50;52.30;;;;;;4983439;28;20034;-50
2023/07/18 03:37:00;;;;;;;1.90;0.82;;;22.50;52.40;;;;;;4980224;28;20037;-51
2023/07/18 03:39:26;;;;;;;1.55;1.02;;;22.50;52.30;;;;;;4980584;28;20117;-50
2023/07/18 03:41:51;;;;;;;1.60;0.80;;;22.50;52.40;;;;;;4981891;28;20034;-50
2023/07/18 03:44:17;;;;;;;3.03;1.00;;;22.50;52.50;;;;;;4981676;28;20392;-52
2023/07/18 03:46:43;;;;;;;1.65;0.95;;;22.50;52.40;;;;;;4994563;23;20053;-59
2023/07/18 03:49:08;;;;;;;0.85;0.65;;;22.40;52.90;;;;;;4984799;23;20047;-49
2023/07/18 03:51:34;;;;;;;2.75;0.90;;;22.40;52.30;;;;;;4957454;28;20031;-49
2023/07/18 03:53:59;;;;;;;3.58;0.90;;;22.40;52.30;;;;;;4972290;28;20081;-52
2023/07/18 03:56:25;;;;;;;3.35;0.98;;;22.50;52.40;;;;;;4949842;28;20492;-49
2023/07/18 03:58:51;;;;;;;1.90;0.60;;;22.50;52.50;;;;;;4936723;28;20035;-53
2023/07/18 04:01:17;;;;;;;2.55;1.20;;;22.40;52.40;;;;;;4945177;28;20028;-50
2023/07/18 04:03:43;;;;;;;2.53;0.95;;;22.50;52.40;;;;;;4942782;28;20511;-51
2023/07/18 04:06:09;;;;;;;1.75;1.02;;;22.40;52.40;;;;;;4941629;28;20039;-51
2023/07/18 04:08:34;;;;;;;0.93;0.70;;;22.40;52.50;;;;;;4940159;28;20635;-50
2023/07/18 04:11:00;;;;;;;2.53;0.93;;;22.40;52.50;;;;;;4941829;28;20036;-52
2023/07/18 04:13:25;;;;;;;1.40;0.80;;;22.40;52.60;;;;;;4945717;28;20035;-54
2023/07/18 04:15:53;;;;;;;2.33;0.77;;;22.50;52.70;;;;;;4934659;28;20484;-52
2023/07/18 04:18:19;;;;;;;2.55;0.80;;;22.40;52.60;;;;;;4960528;28;20038;-50
2023/07/18 04:20:44;;;;;;;1.20;0.90;;;22.40;52.70;;;;;;4960717;28;20034;-52
2023/07/18 04:23:10;;;;;;;2.75;0.95;;;22.40;52.80;;;;;;4960565;28;20070;-51
2023/07/18 04:25:57;;;;;;;2.55;0.73;;;22.40;52.90;;;;;;4959816;28;20105;-52
2023/07/18 04:28:23;;;;;;;1.65;0.60;;;22.40;52.90;;;;;;4958167;28;20387;-51
2023/07/18 04:30:49;;;;;;;1.58;0.73;;;22.40;52.90;;;;;;4941947;28;20041;-49
2023/07/18 04:33:15;;;;;;;1.85;1.10;;;22.40;52.90;;;;;;4939010;28;20073;-49
2023/07/18 04:35:41;;;;;;;2.88;1.00;;;22.40;52.90;;;;;;4941603;28;20118;-53
2023/07/18 04:38:09;;;;;;;1.33;0.90;;;22.40;52.80;;;;;;4936514;28;20039;-51
2023/07/18 04:40:35;;;;;;;3.72;0.77;;;22.50;53.00;;;;;;4938132;28;20126;-50
2023/07/18 04:43:00;;;;;;;2.20;1.10;;;22.50;53.00;;;;;;4953514;28;20742;-51
2023/07/18 04:45:26;;;;;;;1.70;1.20;;;22.50;53.10;;;;;;4941356;28;20059;-50
2023/07/18 04:47:52;;;;;;;2.75;1.00;;;22.50;53.00;;;;;;4935023;28;20048;-48
2023/07/18 04:50:18;;;;;;;1.13;0.80;;;22.50;53.00;;;;;;4943841;28;20397;-52
2023/07/18 04:52:43;;;;;;;1.40;0.80;;;22.60;53.10;;;;;;4941836;28;20033;-53
2023/07/18 04:55:10;;;;;;;1.73;0.70;;;22.60;53.10;;;;;;4942979;28;20036;-51
2023/07/18 04:57:36;;;;;;;3.22;1.50;;;22.60;53.20;;;;;;4935136;28;20930;-50
2023/07/18 05:00:03;;;;;;;2.30;1.02;;;22.70;53.30;;;;;;4950587;28;20121;-50
2023/07/18 05:02:28;;;;;;;1.50;1.00;;;22.70;53.30;;;;;;4944387;28;20027;-50
2023/07/18 05:04:54;;;;;;;2.40;1.08;;;22.60;53.20;;;;;;4944228;28;20408;-50
2023/07/18 05:07:19;;;;;;;2.13;1.38;;;22.70;53.30;;;;;;4937214;28;20068;-50
2023/07/18 05:09:46;;;;;;;1.15;0.90;;;22.70;53.30;;;;;;4954810;28;20023;-51
2023/07/18 05:12:11;;;;;;;2.75;1.30;;;22.70;53.20;;;;;;4958869;28;20035;-50
2023/07/18 05:14:37;;;;;;;3.38;1.30;;;22.70;53.20;;;;;;4959970;28;20081;-53
2023/07/18 05:17:03;;;;;;;2.60;1.50;;;22.70;53.20;;;;;;4956949;28;20035;-50
2023/07/18 05:19:28;;;;;;;2.65;1.20;;;22.80;53.10;;;;;;4961726;28;20031;-50
2023/07/18 05:21:54;;;;;;;2.78;1.05;;;22.80;53.20;;;;;;4961550;28;20114;-50
2023/07/18 05:24:19;;;;;;;3.63;1.25;;;22.80;53.20;;;;;;4963494;28;20057;-50
2023/07/18 05:26:45;;;;;;;1.40;0.90;;;22.80;53.10;;;;;;4959635;28;20177;-50
2023/07/18 05:29:11;;;;;;;3.05;1.60;;;22.80;53.10;;;;;;4966848;28;20065;-50
2023/07/18 05:31:36;;;;;;;6.20;1.90;;;22.80;53.10;;;;;;4960560;28;20027;-51
2023/07/18 05:34:02;;;;;;;6.20;1.27;;;22.80;53.20;;;;;;4966559;28;20061;-50
2023/07/18 05:36:27;;;;;;;1.65;1.10;;;22.80;53.10;;;;;;4965912;28;20050;-53
2023/07/18 05:38:53;;;;;;;2.40;1.30;;;22.80;53.10;;;;;;4960105;28;20063;-51
2023/07/18 05:41:18;;;;;;;3.08;1.83;;;22.80;53.00;;;;;;4962780;28;20105;-50
2023/07/18 05:43:44;;;;;;;2.63;1.40;;;22.80;53.00;;;;;;4962893;28;20542;-52
2023/07/18 05:46:10;;;;;;;2.00;1.40;;;22.80;53.00;;;;;;4967904;28;20169;-50
2023/07/18 05:48:36;;;;;;;2.03;1.40;;;22.80;53.70;;;;;;4963142;28;20034;-52
2023/07/18 05:51:02;;;;;;;2.58;1.80;;;22.80;53.10;;;;;;4963953;28;20080;-50
2023/07/18 05:53:28;;;;;;;1.73;0.93;;;22.80;53.10;;;;;;4962140;28;20039;-51
2023/07/18 05:55:53;;;;;;;2.80;1.20;;;22.80;53.10;;;;;;4964467;28;20506;-50
2023/07/18 05:58:19;;;;;;;5.53;2.00;;;22.80;53.10;;;;;;4961333;28;20118;-50
2023/07/18 06:00:45;;;;;;;1.90;1.42;;;22.80;53.10;;;;;;4959419;28;20042;-50
2023/07/18 06:03:10;;;;;;;2.38;1.40;;;22.80;53.20;;;;;;4960528;28;20555;-50
2023/07/18 06:05:36;;;;;;;2.60;1.40;;;22.80;53.20;;;;;;4957631;28;20423;-53
2023/07/18 06:08:03;;;;;;;2.88;1.60;;;22.80;53.10;;;;;;4964312;28;20053;-50
2023/07/18 06:10:29;;;;;;;3.90;1.30;;;22.80;53.10;;;;;;4961985;28;20035;-50
2023/07/18 06:12:54;;;;;;;2.25;1.33;;;22.80;53.10;;;;;;4964702;28;20042;-50
2023/07/18 06:15:20;;;;;;;2.20;1.30;;;22.80;53.10;;;;;;4961094;28;20548;-50
2023/07/18 06:17:45;;;;;;;4.78;1.95;;;22.80;53.10;;;;;;4958620;28;20058;-50
2023/07/18 06:20:14;;;;;;;2.40;1.27;;;22.80;53.10;;;;;;4963520;28;20029;-50
2023/07/18 06:22:40;;;;;;;4.07;1.23;;;22.80;53.00;;;;;;4956195;28;20038;-50
2023/07/18 06:25:06;;;;;;;2.08;1.15;;;22.80;53.10;;;;;;4965212;28;20110;-50
2023/07/18 06:27:32;;;;;;;3.30;1.45;;;22.80;52.90;;;;;;4960735;28;20384;-50
2023/07/18 06:29:58;;;;;;;2.38;1.48;;;22.80;52.90;;;;;;4960083;28;20079;-50
2023/07/18 06:32:24;;;;;;;2.40;1.70;;;22.80;52.90;;;;;;4964712;28;20366;-50
2023/07/18 06:34:50;;;;;;;2.38;1.40;;;22.80;53.10;;;;;;4961554;28;20058;-50
2023/07/18 06:37:15;;;;;;;2.28;1.45;;;22.80;53.00;;;;;;4952757;28;20035;-49
2023/07/18 06:39:41;;;;;;;5.22;1.90;;;22.80;53.10;;;;;;4954849;28;20055;-50
2023/07/18 06:42:10;;;;;;;2.72;1.70;;;22.80;53.10;;;;;;4967568;28;20148;-50
2023/07/18 06:44:36;;;;;;;3.58;1.60;;;22.80;53.10;;;;;;4963016;28;20122;-50
2023/07/18 06:47:02;;;;;;;3.30;1.30;;;22.80;53.10;;;;;;4960872;28;20396;-49
2023/07/18 06:49:28;;;;;;;3.08;1.80;;;22.80;53.20;;;;;;4960490;28;20471;-53
2023/07/18 06:51:53;;;;;;;3.95;1.52;;;22.80;53.30;;;;;;4965847;28;20045;-50
2023/07/18 06:54:19;;;;;;;2.60;1.63;;;22.80;53.10;;;;;;4959556;28;20499;-52
2023/07/18 06:56:45;;;;;;;1.98;1.42;;;22.80;52.90;;;;;;4958859;28;20518;-50
2023/07/18 06:59:11;;;;;;;2.45;1.65;;;22.80;53.10;;;;;;4958315;28;20035;-50
2023/07/18 07:01:36;;;;;;;4.22;2.05;;;22.70;53.00;;;;;;4958823;28;20042;-50
2023/07/18 07:04:02;;;;;;;3.08;1.27;;;22.70;53.00;;;;;;4959041;28;20112;-50
2023/07/18 07:06:28;;;;;;;1.85;1.50;;;22.70;53.00;;;;;;4964580;28;20346;-50
2023/07/18 07:08:54;;;;;;;2.08;1.65;;;22.70;52.90;;;;;;4964165;28;20124;-50
2023/07/18 07:11:19;;;;;;;3.00;1.23;;;22.70;52.90;;;;;;4955626;28;20408;-51
2023/07/18 07:13:45;;;;;;;2.35;1.70;;;22.70;52.90;;;;;;4960842;28;20034;-50
2023/07/18 07:16:10;;;;;;;3.17;1.60;;;22.70;53.70;;;;;;4963024;28;20031;-50
2023/07/18 07:18:36;;;;;;;4.15;1.55;;;22.70;53.10;;;;;;4961223;28;20033;-50
2023/07/18 07:21:02;;;;;;;3.15;1.23;;;22.70;53.10;;;;;;4961815;28;20199;-51
2023/07/18 07:23:30;;;;;;;2.95;1.77;;;22.70;53.00;;;;;;4964637;28;20027;-51
2023/07/18 07:25:56;;;;;;;2.40;1.55;;;22.70;53.10;;;;;;4963951;28;20036;-51
2023/07/18 07:28:25;;;;;;;2.53;1.83;;;22.70;53.30;;;;;;4964176;28;20070;-50
2023/07/18 07:30:51;;;;;;;2.35;1.42;;;22.70;53.10;;;;;;4961989;28;20335;-51
2023/07/18 07:33:18;;;;;;;2.63;1.92;;;22.70;53.10;;;;;;4957837;28;20030;-50
2023/07/18 07:35:44;;;;;;;3.42;1.58;;;22.70;53.10;;;;;;4965996;28;20041;-50
2023/07/18 07:38:10;;;;;;;3.28;1.58;;;22.70;53.10;;;;;;4958772;28;20027;-52
2023/07/18 07:40:36;;;;;;;5.57;1.50;;;22.70;53.20;;;;;;4963151;28;20093;-50
2023/07/18 07:43:01;;;;;;;2.40;1.58;;;22.70;53.10;;;;;;4960420;28;20047;-50
2023/07/18 07:45:27;;;;;;;3.33;1.45;;;22.70;53.20;;;;;;4958257;28;20038;-50
2023/07/18 07:47:52;;;;;;;3.58;1.67;;;22.70;53.20;;;;;;4966350;28;20047;-50
2023/07/18 07:50:18;;;;;;;2.88;2.13;;;22.70;53.30;;;;;;4952794;28;20057;-50
2023/07/18 07:52:45;;;;;;;2.88;1.55;;;22.70;53.20;;;;;;4960108;28;20045;-50
2023/07/18 07:55:14;;;;;;;2.53;1.73;;;22.70;53.00;;;;;;4950665;28;20036;-50
2023/07/18 07:57:39;;;;;;;2.67;1.60;;;22.60;52.90;;;;;;4959313;28;20026;-50
2023/07/18 08:00:07;;;;;;;2.83;1.40;;;22.70;52.80;;;;;;4964635;28;20035;-50
2023/07/18 08:02:32;;;;;;;1.98;1.35;;;22.70;52.80;;;;;;4972692;28;20499;-51
2023/07/18 08:04:58;;;;;;;3.08;1.23;;;22.70;53.10;;;;;;4961772;28;20077;-49
2023/07/18 08:07:23;;;;;;;2.67;1.45;;;22.70;53.10;;;;;;4957665;28;20346;-49
2023/07/18 08:09:50;;;;;;;1.88;1.58;;;22.70;53.00;;;;;;4961002;28;20086;-51
2023/07/18 08:12:15;;;;;;;2.65;1.83;;;22.70;53.00;;;;;;4961557;28;20065;-52
2023/07/18 08:14:41;;;;;;;3.97;1.45;;;22.70;52.90;;;;;;4959755;28;20070;-52
2023/07/18 08:17:07;;;;;;;3.13;1.80;;;22.70;53.20;;;;;;4960151;28;20031;-50
2023/07/18 08:19:33;;;;;;;2.78;1.73;;;22.70;53.00;;;;;;4957935;28;20791;-51
2023/07/18 08:22:00;;;;;;;4.07;2.03;;;22.60;52.70;;;;;;4958622;28;20049;-51
2023/07/18 08:24:25;;;;;;;2.55;1.70;;;22.70;52.70;;;;;;4963739;28;20035;-50
2023/07/18 08:26:51;;;;;;;2.00;1.55;;;22.70;52.70;;;;;;4963727;28;20653;-53
2023/07/18 08:29:17;;;;;;;2.53;1.30;;;22.70;52.70;;;;;;4951886;28;20050;-52
2023/07/18 08:31:43;;;;;;;2.00;1.63;;;22.70;53.10;;;;;;4954252;28;20519;-53
2023/07/18 08:34:08;;;;;;;2.22;1.60;;;22.70;53.10;;;;;;4950189;28;20723;-51
2023/07/18 08:36:35;;;;;;;1.90;1.30;;;22.70;52.90;;;;;;4962404;28;20042;-50
2023/07/18 08:39:02;;;;;;;4.00;1.70;;;22.70;52.80;;;;;;4962808;28;20030;-51
2023/07/18 08:41:28;;;;;;;2.00;1.50;;;22.70;52.90;;;;;;4955306;28;20122;-50
2023/07/18 08:43:54;;;;;;;1.65;1.38;;;22.70;52.80;;;;;;4963715;28;20045;-50
2023/07/18 08:46:20;;;;;;;3.55;1.85;;;22.70;52.60;;;;;;4962986;28;20139;-50
2023/07/18 08:48:48;;;;;;;2.70;1.70;;;22.70;52.50;;;;;;4956070;28;20528;-50
2023/07/18 08:51:14;;;;;;;4.63;1.70;;;22.70;51.20;;;;;;4955965;28;20419;-50
2023/07/18 08:53:40;;;;;;;2.92;2.00;;;22.60;50.70;;;;;;4963364;28;20114;-51
2023/07/18 08:56:09;;;;;;;4.22;2.10;;;22.60;50.60;;;;;;4963772;28;20320;-50
2023/07/18 08:58:38;;;;;;;2.65;1.60;;;22.60;50.80;;;;;;4950672;28;20069;-51
2023/07/18 09:01:05;;;;;;;4.57;1.85;;;22.60;50.40;;;;;;4959905;28;20041;-51
2023/07/18 09:03:30;;;;;;;3.60;1.80;;;22.60;50.00;;;;;;4962934;28;20460;-52
2023/07/18 09:05:57;;;;;;;2.75;1.75;;;22.60;50.90;;;;;;4963411;28;20042;-52
2023/07/18 09:08:23;;;;;;;2.78;1.35;;;22.70;51.10;;;;;;4956308;28;20045;-51
2023/07/18 09:11:03;;;;;;;2.08;1.48;;;22.70;51.30;;;;;;4953741;28;20023;-51
2023/07/18 09:13:37;;;;;;;2.33;1.70;;;22.70;51.60;;;;;;4951444;28;20054;-50
2023/07/18 09:16:18;;;;;;;1.67;1.33;;;22.70;51.60;;;;;;4957949;28;20055;-48
2023/07/18 09:18:54;;;;;;;1.90;1.42;;;22.70;51.60;;;;;;4956367;28;20041;-51
2023/07/18 09:21:21;;;;;;;2.33;1.30;;;22.70;51.40;;;;;;4961503;28;20097;-51
2023/07/18 09:23:48;;;;;;;2.03;1.50;;;22.70;51.60;;;;;;4954661;28;20050;-51
2023/07/18 09:26:19;;;;;;;1.20;1.08;;;22.80;51.40;;;;;;4953085;28;20035;-51
2023/07/18 09:28:45;;;;;;;2.03;1.42;;;22.80;51.70;;;;;;4949921;28;20039;-53
2023/07/18 09:31:18;;;;;;;2.75;1.38;;;22.80;51.50;;;;;;4953738;28;20041;-51
2023/07/18 09:33:48;;;;;;;2.33;1.65;;;22.70;51.70;;;;;;4955991;28;20034;-51
2023/07/18 09:36:18;;;;;;;2.88;1.65;;;22.70;51.80;;;;;;4953076;28;20118;-51
2023/07/18 09:38:46;;;;;;;3.80;2.53;;;22.70;51.70;;;;;;4950956;28;20034;-52
2023/07/18 09:41:12;;;;;;;2.38;1.73;;;22.70;51.60;;;;;;4935104;28;20118;-51
2023/07/18 09:43:41;;;;;;;2.58;1.40;;;22.70;51.60;;;;;;4932011;28;20122;-51
2023/07/18 09:46:09;;;;;;;1.80;1.40;;;22.70;51.50;;;;;;4952859;28;20177;-50
2023/07/18 09:48:35;;;;;;;2.85;1.65;;;22.70;51.30;;;;;;4957254;28;20050;-52
2023/07/18 09:51:07;;;;;;;1.83;1.30;;;22.70;51.50;;;;;;4962527;28;20055;-50
2023/07/18 09:53:33;;;;;;;1.98;1.42;;;22.70;51.30;;;;;;4961887;28;20034;-51
2023/07/18 09:56:00;;;;;;;2.13;1.40;;;22.70;51.10;;;;;;4952889;28;20031;-52
2023/07/18 09:58:27;;;;;;;2.92;1.58;;;22.70;51.40;;;;;;4945549;28;20038;-50
2023/07/18 10:00:54;;;;;;;2.97;1.40;;;22.70;50.90;;;;;;4955477;28;20039;-50
2023/07/18 10:03:22;;;;;;;3.00;1.42;;;22.70;50.70;;;;;;4956665;28;20042;-52
2023/07/18 10:05:48;;;;;;;2.60;1.75;;;22.70;50.80;;;;;;4957915;28;20147;-51
2023/07/18 10:08:14;;;;;;;2.88;1.77;;;22.70;51.00;;;;;;4953424;28;20043;-52
2023/07/18 10:10:39;;;;;;;2.85;1.30;;;22.70;51.70;;;;;;4954139;28;20046;-50
2023/07/18 10:13:05;;;;;;;2.90;1.63;;;22.70;50.70;;;;;;4953259;28;20516;-50
2023/07/18 10:16:09;;;;;;;2.15;1.38;;;22.70;50.80;;;;;;4959467;28;20456;-50
2023/07/18 10:18:46;;;;;;;1.75;1.33;;;22.70;51.10;;;;;;4957922;28;20065;-50
2023/07/18 10:21:14;;;;;;;2.50;1.73;;;22.70;51.00;;;;;;4954130;28;20039;-51
2023/07/18 10:23:42;;;;;;;2.20;1.77;;;22.60;49.00;;;;;;4957981;28;20755;-50
2023/07/18 10:26:07;;;;;;;2.58;1.45;;;22.60;48.70;;;;;;4960826;28;20036;-50
2023/07/18 10:28:45;;;;;;;1.80;1.30;;;22.70;48.70;;;;;;4954773;28;20185;-50
2023/07/18 10:31:46;;;;;;;2.70;1.60;;;22.70;49.40;;;;;;4961446;28;20039;-51
2023/07/18 10:34:14;;;;;;;1.70;1.33;;;22.70;50.00;;;;;;4944854;28;20027;-51
2023/07/18 10:36:54;;;;;;;1.55;1.40;;;22.70;50.00;;;;;;4949206;28;20031;-51
2023/07/18 10:39:41;;;;;;;1.80;1.48;;;22.70;50.10;;;;;;4966372;28;20403;-50
2023/07/18 10:42:20;;;;;;;1.90;1.52;;;22.80;49.30;;;;;;4960426;28;20035;-52
2023/07/18 10:44:47;;;;;;;2.08;1.70;;;22.70;50.40;;;;;;4964893;28;20038;-50
2023/07/18 10:47:18;;;;;;;1.40;1.30;;;22.80;50.60;;;;;;4965331;28;20066;-50
2023/07/18 10:49:45;;;;;;;2.13;1.42;;;22.80;50.80;;;;;;4965166;28;20514;-51
2023/07/18 10:52:12;;;;;;;2.78;1.50;;;22.70;50.70;;;;;;4965959;28;20118;-51
2023/07/18 10:54:45;;;;;;;3.67;1.77;;;22.70;50.70;;;;;;4965289;28;20484;-50
2023/07/18 10:57:11;;;;;;;2.17;1.33;;;22.80;50.70;;;;;;4965189;28;20038;-52
2023/07/18 10:59:37;;;;;;;3.70;1.80;;;22.80;50.80;;;;;;4964459;28;20030;-53
2023/07/18 11:02:03;;;;;;;2.35;1.63;;;22.80;50.60;;;;;;4965538;28;20034;-50
2023/07/18 11:04:29;;;;;;;2.40;1.40;;;22.70;50.40;;;;;;4964101;28;20750;-50
2023/07/18 11:06:55;;;;;;;2.53;1.52;;;22.70;50.00;;;;;;4973217;28;20046;-50
2023/07/18 11:09:22;;;;;;;2.47;1.55;;;22.80;50.30;;;;;;4965139;28;20058;-50
2023/07/18 11:11:47;;;;;;;3.83;1.98;;;22.70;50.00;;;;;;4964891;28;20043;-54
2023/07/18 11:14:13;;;;;;;2.80;1.58;;;22.70;47.70;;;;;;4959563;28;20602;-50
2023/07/18 11:16:39;;;;;;;2.67;1.95;;;22.60;47.90;;;;;;4946845;28;20031;-50
2023/07/18 11:19:07;;;;;;;2.50;1.55;;;22.70;48.50;;;;;;4945917;28;20082;-51
2023/07/18 11:21:34;;;;;;;2.75;1.40;;;22.70;48.60;;;;;;4944437;28;20035;-50
2023/07/18 11:24:00;;;;;;;1.73;1.50;;;22.60;48.20;;;;;;4945525;28;20115;-50
2023/07/18 11:26:26;;;;;;;2.42;1.80;;;22.60;48.50;;;;;;4961138;28;20118;-51
2023/07/18 11:28:53;;;;;;;3.65;1.90;;;22.70;48.70;;;;;;4952804;28;21057;-50
2023/07/18 11:31:27;;;;;;;2.83;1.52;;;22.60;48.90;;;;;;4945671;28;20050;-53
2023/07/18 11:33:55;;;;;;;2.03;1.42;;;22.70;48.30;;;;;;4953088;28;20027;-50
2023/07/18 11:36:22;;;;;;;2.15;1.55;;;22.70;48.50;;;;;;4964590;28;20034;-50
2023/07/18 11:38:49;;;;;;;3.47;1.88;;;22.70;48.60;;;;;;4970611;28;20046;-51
2023/07/18 11:41:48;;;;;;;2.75;1.70;;;22.80;48.60;;;;;;4964891;28;20035;-51
2023/07/18 11:44:26;;;;;;;1.95;1.23;;;22.80;49.20;;;;;;4959380;28;20059;-52
2023/07/18 11:46:52;;;;;;;2.17;1.67;;;22.70;49.40;;;;;;4961063;28;20114;-52
2023/07/18 11:49:33;;;;;;;2.50;1.20;;;22.80;49.60;;;;;;4967762;28;20562;-51
2023/07/18 11:52:01;;;;;;;2.63;1.35;;;22.80;49.40;;;;;;4950006;28;20046;-51
2023/07/18 11:54:27;;;;;;;2.05;1.38;;;22.80;49.40;;;;;;4961352;28;20138;-50
2023/07/18 11:56:52;;;;;;;2.42;1.52;;;22.80;49.30;;;;;;4963346;28;20130;-50
2023/07/18 11:59:18;;;;;;;1.70;1.25;;;22.80;49.50;;;;;;4947831;28;20165;-50
2023/07/18 12:01:43;;;;;;;2.58;1.70;;;22.80;49.60;;;;;;4959654;28;20035;-50
2023/07/18 12:04:13;;;;;;;3.28;1.80;;;22.80;49.00;;;;;;4970283;28;20049;-51
2023/07/18 12:06:39;;;;;;;2.03;1.83;;;22.80;49.20;;;;;;4962030;28;20030;-51
2023/07/18 12:09:04;;;;;;;3.45;1.90;;;22.80;48.50;;;;;;4962829;28;20109;-53
2023/07/18 12:11:30;;;;;;;3.72;1.58;;;22.80;48.90;;;;;;4961379;28;20035;-51
2023/07/18 12:13:56;;;;;;;2.17;1.35;;;22.80;48.90;;;;;;4947041;28;20031;-52
2023/07/18 12:16:22;;;;;;;3.35;1.88;;;22.90;49.60;;;;;;4955453;28;20027;-51
2023/07/18 12:18:47;;;;;;;1.83;1.40;;;22.90;49.50;;;;;;4958380;28;20441;-54
2023/07/18 12:21:14;;;;;;;1.88;1.35;;;22.90;49.20;;;;;;4954448;28;20030;-51
2023/07/18 12:23:39;;;;;;;1.88;1.55;;;22.90;50.10;;;;;;4953156;28;20106;-52
2023/07/18 12:26:05;;;;;;;2.53;1.65;;;22.90;49.30;;;;;;4968782;28;20054;-50
2023/07/18 12:28:31;;;;;;;3.28;1.50;;;22.90;49.30;;;;;;4962689;28;20049;-51
2023/07/18 12:30:56;;;;;;;4.15;1.70;;;22.90;49.70;;;;;;4971671;28;20041;-53
2023/07/18 12:33:23;;;;;;;2.47;1.27;;;23.00;49.40;;;;;;4967263;28;20027;-51
2023/07/18 12:35:49;;;;;;;1.67;1.30;;;22.90;50.40;;;;;;4958986;28;20757;-52
2023/07/18 12:38:15;;;;;;;2.30;1.48;;;22.90;49.90;;;;;;4973658;28;20400;-51
2023/07/18 12:40:41;;;;;;;2.40;1.50;;;22.90;49.80;;;;;;4962149;28;20027;-53
2023/07/18 12:43:06;;;;;;;3.17;1.25;;;22.90;49.70;;;;;;4969586;28;20480;-50
2023/07/18 12:45:33;;;;;;;4.85;1.98;;;22.90;49.50;;;;;;4963222;28;20485;-50
2023/07/18 12:48:01;;;;;;;1.73;1.20;;;23.00;48.60;;;;;;4960256;28;20038;-50